createdAt,value
2023-05-01T00:01:15.093Z,6.92
2023-05-01T00:03:42.732Z,6.79
2023-05-01T00:06:10.813Z,6.62
2023-05-01T00:08:38.366Z,6.54
2023-05-01T00:11:09.675Z,6.58
2023-05-01T00:13:37.181Z,6.54
2023-05-01T00:16:10.233Z,6.64
2023-05-01T00:18:37.904Z,6.66
2023-05-01T00:21:05.851Z,6.57
2023-05-01T00:23:33.452Z,6.52
2023-05-01T00:26:01.051Z,6.47
2023-05-01T00:28:29.182Z,6.49
2023-05-01T00:30:56.681Z,6.49
2023-05-01T00:33:25.492Z,6.55
2023-05-01T00:35:52.985Z,6.56
2023-05-01T00:38:20.465Z,6.58
2023-05-01T00:40:48.515Z,6.54
2023-05-01T00:43:16.342Z,6.55
2023-05-01T00:45:45.330Z,6.69
2023-05-01T00:48:13.340Z,6.49
2023-05-01T00:50:42.409Z,6.33
2023-05-01T00:53:09.935Z,6.17
2023-05-01T00:55:38.049Z,6.22
2023-05-01T00:58:05.703Z,6.12
2023-05-01T01:00:33.177Z,6.09
2023-05-01T01:03:00.996Z,6.33
2023-05-01T01:05:32.574Z,6.31
2023-05-01T01:08:07.043Z,6.21
2023-05-01T01:10:38.345Z,6.09
2023-05-01T01:13:10.789Z,5.98
2023-05-01T01:15:43.155Z,6.18
2023-05-01T01:18:14.486Z,6.09
2023-05-01T01:20:46.363Z,5.69
2023-05-01T01:23:42.882Z,5.34
2023-05-01T01:26:34.600Z,5.21
2023-05-01T01:29:36.505Z,5.50
2023-05-01T01:32:12.320Z,5.44
2023-05-01T01:34:45.810Z,5.46
2023-05-01T01:37:18.760Z,5.37
2023-05-01T01:39:50.818Z,5.33
2023-05-01T01:42:21.666Z,5.30
2023-05-01T01:44:52.623Z,5.34
2023-05-01T01:47:21.853Z,5.35
2023-05-01T01:49:53.210Z,5.22
2023-05-01T01:52:21.694Z,5.26
2023-05-01T01:54:52.085Z,5.36
2023-05-01T01:57:20.890Z,5.46
2023-05-01T01:59:49.547Z,5.67
2023-05-01T02:02:19.917Z,5.65
2023-05-01T02:04:49.292Z,5.54
2023-05-01T02:07:19.034Z,5.51
2023-05-01T02:09:47.344Z,5.54
2023-05-01T02:12:17.679Z,5.44
2023-05-01T02:14:45.907Z,5.43
2023-05-01T02:17:14.606Z,5.44
2023-05-01T02:19:43.414Z,5.26
2023-05-01T02:22:11.642Z,5.39
2023-05-01T02:24:41.353Z,5.45
2023-05-01T02:27:18.437Z,5.41
2023-05-01T02:29:45.933Z,5.39
2023-05-01T02:32:13.562Z,5.41
2023-05-01T02:34:43.021Z,5.35
2023-05-01T02:37:12.538Z,5.42
2023-05-01T02:39:43.426Z,5.43
2023-05-01T02:42:12.743Z,5.40
2023-05-01T02:44:43.226Z,5.35
2023-05-01T02:47:11.871Z,5.31
2023-05-01T02:49:40.802Z,5.28
2023-05-01T02:52:08.394Z,5.10
2023-05-01T02:54:36.052Z,5.23
2023-05-01T02:57:06.412Z,5.27
2023-05-01T02:59:34.942Z,5.22
2023-05-01T03:02:02.449Z,5.16
2023-05-01T03:04:30.007Z,5.11
2023-05-01T03:06:57.584Z,5.12
2023-05-01T03:09:25.143Z,5.25
2023-05-01T03:11:52.695Z,5.25
2023-05-01T03:14:21.523Z,5.37
2023-05-01T03:16:49.010Z,5.18
2023-05-01T03:19:16.601Z,4.97
2023-05-01T03:21:44.097Z,4.77
2023-05-01T03:24:11.808Z,4.73
2023-05-01T03:26:39.877Z,4.72
2023-05-01T03:29:08.546Z,4.83
2023-05-01T03:31:39.471Z,4.78
2023-05-01T03:34:08.786Z,4.77
2023-05-01T03:36:37.028Z,4.69
2023-05-01T03:39:06.406Z,4.61
2023-05-01T03:41:59.916Z,4.69
2023-05-01T03:44:30.501Z,4.59
2023-05-01T03:46:59.417Z,4.85
2023-05-01T03:49:29.484Z,4.60
2023-05-01T03:51:57.016Z,4.44
2023-05-01T03:54:25.546Z,4.46
2023-05-01T03:57:02.452Z,4.52
2023-05-01T03:59:30.751Z,4.61
2023-05-01T04:02:00.581Z,4.61
2023-05-01T04:04:30.515Z,4.70
2023-05-01T04:06:59.260Z,4.69
2023-05-01T04:09:26.973Z,4.71
2023-05-01T04:11:54.467Z,4.67
2023-05-01T04:14:22.101Z,4.84
2023-05-01T04:16:50.912Z,4.65
2023-05-01T04:19:20.416Z,4.59
2023-05-01T04:21:52.954Z,4.65
2023-05-01T04:24:20.474Z,4.52
2023-05-01T04:26:47.954Z,4.34
2023-05-01T04:29:15.524Z,4.36
2023-05-01T04:31:43.402Z,4.41
2023-05-01T04:34:10.957Z,4.46
2023-05-01T04:36:40.473Z,4.59
2023-05-01T04:39:08.404Z,4.57
2023-05-01T04:41:36.756Z,4.65
2023-05-01T04:44:06.346Z,4.85
2023-05-01T04:46:34.447Z,4.52
2023-05-01T04:49:02.004Z,4.49
2023-05-01T04:51:30.097Z,4.46
2023-05-01T04:53:58.991Z,4.52
2023-05-01T04:56:28.354Z,4.63
2023-05-01T04:59:01.097Z,4.60
2023-05-01T05:01:30.742Z,4.57
2023-05-01T05:03:59.016Z,4.62
2023-05-01T05:06:26.720Z,4.71
2023-05-01T05:08:55.768Z,4.74
2023-05-01T05:11:24.641Z,4.71
2023-05-01T05:14:01.361Z,4.73
2023-05-01T05:16:29.008Z,4.86
2023-05-01T05:18:58.171Z,4.92
2023-05-01T05:21:28.070Z,4.99
2023-05-01T05:23:58.105Z,4.98
2023-05-01T05:26:26.972Z,4.98
2023-05-01T05:28:56.918Z,5.12
2023-05-01T05:31:24.700Z,5.19
2023-05-01T05:33:52.211Z,5.20
2023-05-01T05:36:20.014Z,5.27
2023-05-01T05:38:48.442Z,5.36
2023-05-01T05:41:19.173Z,5.45
2023-05-01T05:43:49.939Z,5.51
2023-05-01T05:46:17.926Z,5.59
2023-05-01T05:48:45.545Z,5.63
2023-05-01T05:51:13.125Z,5.62
2023-05-01T05:53:40.666Z,5.65
2023-05-01T05:56:08.732Z,5.76
2023-05-01T05:58:36.292Z,5.77
2023-05-01T06:01:06.939Z,5.81
2023-05-01T06:03:36.166Z,5.91
2023-05-01T06:06:04.316Z,6.03
2023-05-01T06:08:32.410Z,6.12
2023-05-01T06:11:00.063Z,6.24
2023-05-01T06:13:27.928Z,6.34
2023-05-01T06:15:55.614Z,6.41
2023-05-01T06:18:24.496Z,6.55
2023-05-01T06:20:52.477Z,6.68
2023-05-01T06:23:20.226Z,6.92
2023-05-01T06:25:57.466Z,7.14
2023-05-01T06:28:25.019Z,7.20
2023-05-01T06:30:52.704Z,7.31
2023-05-01T06:33:21.099Z,7.40
2023-05-01T06:36:00.848Z,7.41
2023-05-01T06:38:28.393Z,7.52
2023-05-01T06:40:56.474Z,7.72
2023-05-01T06:43:27.961Z,7.94
2023-05-01T06:45:55.657Z,8.05
2023-05-01T06:48:23.227Z,8.20
2023-05-01T06:50:50.852Z,8.41
2023-05-01T06:53:19.642Z,8.46
2023-05-01T06:55:47.282Z,8.60
2023-05-01T06:58:23.443Z,8.79
2023-05-01T07:00:52.167Z,8.95
2023-05-01T07:03:19.916Z,9.06
2023-05-01T07:05:47.644Z,9.06
2023-05-01T07:08:15.248Z,9.30
2023-05-01T07:10:44.065Z,9.48
2023-05-01T07:13:11.725Z,9.69
2023-05-01T07:15:39.382Z,9.91
2023-05-01T07:18:06.917Z,10.09
2023-05-01T07:20:35.111Z,10.12
2023-05-01T07:23:03.506Z,10.25
2023-05-01T07:25:32.446Z,10.48
2023-05-01T07:28:04.472Z,10.83
2023-05-01T07:30:33.103Z,11.02
2023-05-01T07:33:00.701Z,11.23
2023-05-01T07:35:28.341Z,11.38
2023-05-01T07:37:55.934Z,11.59
2023-05-01T07:40:23.461Z,11.95
2023-05-01T07:42:53.833Z,12.46
2023-05-01T07:45:23.518Z,12.75
2023-05-01T07:47:52.367Z,12.88
2023-05-01T07:50:19.973Z,12.99
2023-05-01T07:52:47.461Z,13.00
2023-05-01T07:55:15.199Z,13.14
2023-05-01T07:57:42.702Z,13.22
2023-05-01T08:00:11.822Z,13.41
2023-05-01T08:02:43.641Z,13.42
2023-05-01T08:05:11.374Z,13.44
2023-05-01T08:07:38.865Z,13.47
2023-05-01T08:10:07.494Z,13.49
2023-05-01T08:12:35.035Z,13.52
2023-05-01T08:15:02.758Z,13.46
2023-05-01T08:17:30.330Z,13.49
2023-05-01T08:19:59.538Z,13.62
2023-05-01T08:22:27.054Z,13.80
2023-05-01T08:24:54.605Z,13.88
2023-05-01T08:27:22.495Z,14.07
2023-05-01T08:29:49.972Z,14.17
2023-05-01T08:32:19.123Z,14.38
2023-05-01T08:34:46.664Z,14.55
2023-05-01T08:37:15.626Z,14.55
2023-05-01T08:39:43.157Z,14.75
2023-05-01T08:42:11.078Z,14.80
2023-05-01T08:44:39.425Z,14.96
2023-05-01T08:47:13.209Z,15.12
2023-05-01T08:49:42.676Z,15.12
2023-05-01T08:52:12.133Z,15.15
2023-05-01T08:54:43.886Z,15.30
2023-05-01T08:57:12.712Z,15.48
2023-05-01T08:59:41.290Z,15.51
2023-05-01T09:02:10.095Z,15.46
2023-05-01T09:04:39.107Z,15.50
2023-05-01T09:07:06.972Z,15.60
2023-05-01T09:09:34.990Z,15.73
2023-05-01T09:12:11.880Z,16.14
2023-05-01T09:14:39.493Z,16.19
2023-05-01T09:17:07.017Z,16.25
2023-05-01T09:19:34.533Z,16.10
2023-05-01T09:22:02.400Z,15.97
2023-05-01T09:24:30.677Z,15.87
2023-05-01T09:26:58.837Z,15.93
2023-05-01T09:29:46.026Z,16.00
2023-05-01T09:32:20.565Z,16.29
2023-05-01T09:34:49.302Z,16.34
2023-05-01T09:37:27.171Z,16.36
2023-05-01T09:40:03.937Z,16.38
2023-05-01T09:42:31.987Z,16.53
2023-05-01T09:45:01.709Z,16.63
2023-05-01T09:47:29.713Z,16.67
2023-05-01T09:49:59.510Z,16.96
2023-05-01T09:52:28.709Z,17.21
2023-05-01T09:55:16.278Z,17.14
2023-05-01T09:57:45.203Z,17.19
2023-05-01T10:00:15.597Z,17.11
2023-05-01T10:02:45.011Z,16.87
2023-05-01T10:05:12.991Z,16.87
2023-05-01T10:07:41.129Z,17.33
2023-05-01T10:10:18.839Z,17.57
2023-05-01T10:12:46.542Z,17.21
2023-05-01T10:15:24.671Z,17.37
2023-05-01T10:17:55.487Z,17.96
2023-05-01T10:20:23.378Z,18.35
2023-05-01T10:22:50.930Z,18.24
2023-05-01T10:25:18.783Z,18.77
2023-05-01T10:27:46.325Z,18.73
2023-05-01T10:30:15.741Z,18.69
2023-05-01T10:32:43.687Z,18.44
2023-05-01T10:35:14.703Z,18.78
2023-05-01T10:37:48.310Z,18.84
2023-05-01T10:40:47.952Z,18.85
2023-05-01T10:43:17.251Z,18.63
2023-05-01T10:45:46.795Z,18.61
2023-05-01T10:48:53.020Z,19.00
2023-05-01T10:51:22.816Z,19.06
2023-05-01T10:54:26.683Z,18.94
2023-05-01T10:56:54.729Z,18.88
2023-05-01T10:59:22.507Z,18.94
2023-05-01T11:01:52.715Z,19.05
2023-05-01T11:04:50.739Z,19.27
2023-05-01T11:07:19.716Z,19.23
2023-05-01T11:09:49.219Z,19.38
2023-05-01T11:12:50.952Z,19.89
2023-05-01T11:15:32.714Z,19.92
2023-05-01T11:18:02.575Z,20.32
2023-05-01T11:20:50.248Z,20.43
2023-05-01T11:23:21.758Z,20.23
2023-05-01T11:25:50.973Z,20.36
2023-05-01T11:28:25.374Z,20.16
2023-05-01T11:30:52.993Z,19.96
2023-05-01T11:33:25.900Z,19.83
2023-05-01T11:36:01.096Z,19.46
2023-05-01T11:38:28.870Z,19.28
2023-05-01T11:40:59.452Z,19.46
2023-05-01T11:43:27.317Z,19.34
2023-05-01T11:46:02.688Z,19.25
2023-05-01T11:48:33.110Z,19.35
2023-05-01T11:51:00.750Z,19.12
2023-05-01T11:53:28.676Z,19.45
2023-05-01T11:55:56.678Z,19.62
2023-05-01T11:58:34.628Z,19.97
2023-05-01T12:01:03.203Z,20.17
2023-05-01T12:03:41.965Z,20.57
2023-05-01T12:06:10.995Z,20.79
2023-05-01T12:08:43.026Z,20.65
2023-05-01T12:11:10.606Z,20.58
2023-05-01T12:13:40.317Z,20.44
2023-05-01T12:16:07.999Z,20.36
2023-05-01T12:18:37.001Z,20.42
2023-05-01T12:21:04.711Z,20.35
2023-05-01T12:23:34.088Z,20.36
2023-05-01T12:26:02.998Z,20.58
2023-05-01T12:28:30.531Z,20.33
2023-05-01T12:31:05.272Z,20.41
2023-05-01T12:33:33.282Z,20.10
2023-05-01T12:36:12.214Z,20.31
2023-05-01T12:38:39.738Z,20.12
2023-05-01T12:41:09.454Z,19.79
2023-05-01T12:43:39.115Z,19.64
2023-05-01T12:46:07.629Z,19.59
2023-05-01T12:48:40.126Z,19.59
2023-05-01T12:51:07.895Z,19.67
2023-05-01T12:53:45.037Z,19.55
2023-05-01T12:56:22.856Z,19.42
2023-05-01T12:58:51.658Z,19.27
2023-05-01T13:01:26.012Z,19.39
2023-05-01T13:03:56.566Z,19.28
2023-05-01T13:06:32.742Z,19.13
2023-05-01T13:09:10.530Z,19.13
2023-05-01T13:11:38.966Z,19.13
2023-05-01T13:14:08.657Z,18.89
2023-05-01T13:16:45.285Z,18.75
2023-05-01T13:19:12.954Z,18.51
2023-05-01T13:21:47.452Z,18.37
2023-05-01T13:24:16.264Z,18.20
2023-05-01T13:26:43.852Z,18.17
2023-05-01T13:29:15.492Z,18.08
2023-05-01T13:31:44.922Z,18.11
2023-05-01T13:34:13.139Z,18.11
2023-05-01T13:36:41.199Z,18.13
2023-05-01T13:39:08.738Z,18.17
2023-05-01T13:41:37.940Z,18.06
2023-05-01T13:44:07.642Z,18.03
2023-05-01T13:46:35.482Z,17.85
2023-05-01T13:49:05.526Z,17.89
2023-05-01T13:51:34.094Z,17.78
2023-05-01T13:54:02.126Z,17.95
2023-05-01T13:56:29.756Z,17.95
2023-05-01T13:59:00.343Z,17.87
2023-05-01T14:01:27.996Z,17.97
2023-05-01T14:03:57.617Z,18.03
2023-05-01T14:06:25.286Z,17.82
2023-05-01T14:08:54.368Z,17.78
2023-05-01T14:11:21.852Z,17.65
2023-05-01T14:13:51.355Z,17.76
2023-05-01T14:16:24.940Z,17.73
2023-05-01T14:18:54.461Z,17.63
2023-05-01T14:21:23.836Z,17.60
2023-05-01T14:23:52.980Z,17.55
2023-05-01T14:26:21.428Z,17.68
2023-05-01T14:28:49.568Z,17.60
2023-05-01T14:31:18.406Z,17.51
2023-05-01T14:33:47.353Z,17.63
2023-05-01T14:36:15.088Z,17.62
2023-05-01T14:38:46.627Z,17.57
2023-05-01T14:41:14.717Z,17.52
2023-05-01T14:43:43.877Z,17.39
2023-05-01T14:46:13.613Z,17.35
2023-05-01T14:48:42.334Z,17.25
2023-05-01T14:51:13.034Z,17.33
2023-05-01T14:53:42.317Z,17.37
2023-05-01T14:56:09.893Z,17.37
2023-05-01T14:58:37.431Z,17.39
2023-05-01T15:01:05.437Z,17.29
2023-05-01T15:03:33.027Z,17.28
2023-05-01T15:06:00.785Z,17.29
2023-05-01T15:08:30.397Z,17.20
2023-05-01T15:10:57.897Z,17.24
2023-05-01T15:13:25.796Z,17.22
2023-05-01T15:15:53.956Z,17.28
2023-05-01T15:18:22.985Z,17.26
2023-05-01T15:20:50.510Z,17.18
2023-05-01T15:23:18.090Z,17.14
2023-05-01T15:25:47.842Z,17.19
2023-05-01T15:28:16.068Z,17.29
2023-05-01T15:30:45.431Z,17.34
2023-05-01T15:33:16.188Z,17.36
2023-05-01T15:35:46.154Z,17.32
2023-05-01T15:38:13.737Z,17.22
2023-05-01T15:40:43.787Z,17.20
2023-05-01T15:43:12.624Z,17.17
2023-05-01T15:45:43.487Z,17.16
2023-05-01T15:48:11.745Z,17.10
2023-05-01T15:50:39.334Z,17.06
2023-05-01T15:53:06.808Z,17.06
2023-05-01T15:55:34.733Z,17.04
2023-05-01T15:58:02.683Z,17.04
2023-05-01T16:00:32.781Z,16.95
2023-05-01T16:03:02.064Z,16.88
2023-05-01T16:05:29.647Z,16.71
2023-05-01T16:08:01.065Z,15.99
2023-05-01T16:10:28.804Z,15.44
2023-05-01T16:12:56.374Z,14.94
2023-05-01T16:15:24.276Z,14.75
2023-05-01T16:17:54.953Z,14.58
2023-05-01T16:20:22.810Z,14.13
2023-05-01T16:22:51.222Z,13.88
2023-05-01T16:25:18.900Z,13.77
2023-05-01T16:27:47.316Z,13.56
2023-05-01T16:30:15.348Z,13.37
2023-05-01T16:32:43.196Z,13.44
2023-05-01T16:35:12.956Z,13.26
2023-05-01T16:37:40.576Z,13.21
2023-05-01T16:40:10.246Z,13.29
2023-05-01T16:42:38.771Z,13.19
2023-05-01T16:45:08.810Z,12.92
2023-05-01T16:47:36.747Z,12.91
2023-05-01T16:50:09.982Z,12.84
2023-05-01T16:52:39.367Z,12.70
2023-05-01T16:55:07.511Z,12.61
2023-05-01T16:57:35.052Z,12.52
2023-05-01T17:00:03.141Z,12.32
2023-05-01T17:02:31.260Z,12.37
2023-05-01T17:04:59.361Z,12.23
2023-05-01T17:07:26.927Z,12.27
2023-05-01T17:09:55.788Z,12.32
2023-05-01T17:12:24.355Z,11.93
2023-05-01T17:14:53.598Z,11.90
2023-05-01T17:17:22.381Z,12.05
2023-05-01T17:19:50.001Z,11.98
2023-05-01T17:22:17.587Z,12.16
2023-05-01T17:24:45.125Z,12.22
2023-05-01T17:27:13.971Z,12.12
2023-05-01T17:29:42.102Z,11.95
2023-05-01T17:32:10.186Z,12.07
2023-05-01T17:34:40.452Z,12.13
2023-05-01T17:37:09.050Z,12.04
2023-05-01T17:39:36.676Z,12.05
2023-05-01T17:42:04.396Z,11.98
2023-05-01T17:44:33.673Z,12.00
2023-05-01T17:47:01.599Z,12.14
2023-05-01T17:49:29.144Z,12.21
2023-05-01T17:51:56.702Z,12.16
2023-05-01T17:54:24.229Z,12.24
2023-05-01T17:56:51.863Z,11.91
2023-05-01T17:59:19.393Z,11.83
2023-05-01T18:01:48.497Z,11.96
2023-05-01T18:04:16.199Z,11.81
2023-05-01T18:06:43.804Z,11.73
2023-05-01T18:09:11.347Z,11.66
2023-05-01T18:11:38.837Z,11.64
2023-05-01T18:14:06.336Z,11.56
2023-05-01T18:16:33.879Z,11.29
2023-05-01T18:19:02.742Z,11.43
2023-05-01T18:21:30.486Z,11.46
2023-05-01T18:23:58.021Z,11.63
2023-05-01T18:26:27.574Z,11.73
2023-05-01T18:28:55.207Z,11.80
2023-05-01T18:31:23.541Z,11.83
2023-05-01T18:33:51.082Z,11.89
2023-05-01T18:36:19.899Z,11.96
2023-05-01T18:38:47.399Z,11.97
2023-05-01T18:41:14.892Z,11.95
2023-05-01T18:43:42.395Z,11.88
2023-05-01T18:46:09.940Z,11.90
2023-05-01T18:48:37.502Z,11.91
2023-05-01T18:51:08.600Z,11.92
2023-05-01T18:53:38.263Z,11.94
2023-05-01T18:56:06.362Z,11.89
2023-05-01T18:58:33.856Z,11.99
2023-05-01T19:01:01.383Z,12.04
2023-05-01T19:03:28.937Z,12.04
2023-05-01T19:05:56.487Z,12.00
2023-05-01T19:08:24.007Z,11.90
2023-05-01T19:10:53.645Z,11.79
2023-05-01T19:13:21.277Z,11.83
2023-05-01T19:15:48.805Z,11.77
2023-05-01T19:18:16.851Z,11.84
2023-05-01T19:20:45.768Z,11.82
2023-05-01T19:23:13.281Z,11.79
2023-05-01T19:25:40.824Z,11.81
2023-05-01T19:28:09.718Z,11.73
2023-05-01T19:30:37.184Z,11.70
2023-05-01T19:33:04.957Z,11.69
2023-05-01T19:35:32.702Z,11.65
2023-05-01T19:38:00.468Z,11.69
2023-05-01T19:40:27.984Z,11.66
2023-05-01T19:42:55.484Z,11.56
2023-05-01T19:45:24.352Z,11.68
2023-05-01T19:47:51.891Z,11.65
2023-05-01T19:50:19.983Z,11.63
2023-05-01T19:52:47.693Z,11.56
2023-05-01T19:55:16.948Z,11.53
2023-05-01T19:57:44.566Z,11.59
2023-05-01T20:00:13.204Z,11.46
2023-05-01T20:02:42.326Z,11.47
2023-05-01T20:05:10.684Z,11.47
2023-05-01T20:07:38.219Z,11.48
2023-05-01T20:10:06.970Z,11.42
2023-05-01T20:12:34.680Z,11.32
2023-05-01T20:15:02.208Z,11.24
2023-05-01T20:17:29.899Z,11.29
2023-05-01T20:19:59.724Z,11.24
2023-05-01T20:22:27.430Z,11.23
2023-05-01T20:24:54.951Z,11.23
2023-05-01T20:27:22.642Z,11.30
2023-05-01T20:29:50.160Z,11.30
2023-05-01T20:32:18.054Z,11.27
2023-05-01T20:34:45.799Z,11.28
2023-05-01T20:37:14.844Z,11.31
2023-05-01T20:39:42.341Z,11.29
2023-05-01T20:42:09.792Z,11.25
2023-05-01T20:44:37.292Z,11.26
2023-05-01T20:47:04.793Z,11.34
2023-05-01T20:49:32.319Z,11.24
2023-05-01T20:52:00.512Z,11.11
2023-05-01T20:54:32.288Z,11.06
2023-05-01T20:57:01.831Z,11.13
2023-05-01T20:59:29.338Z,11.23
2023-05-01T21:01:56.984Z,11.20
2023-05-01T21:04:24.618Z,11.22
2023-05-01T21:06:52.996Z,11.29
2023-05-01T21:09:20.668Z,11.26
2023-05-01T21:11:49.547Z,11.24
2023-05-01T21:14:17.167Z,11.22
2023-05-01T21:16:44.662Z,11.29
2023-05-01T21:19:12.314Z,11.31
2023-05-01T21:21:39.913Z,11.39
2023-05-01T21:24:08.704Z,11.44
2023-05-01T21:26:36.347Z,11.32
2023-05-01T21:29:05.185Z,11.23
2023-05-01T21:31:36.712Z,11.15
2023-05-01T21:34:04.471Z,11.18
2023-05-01T21:36:32.094Z,11.13
2023-05-01T21:39:01.401Z,11.04
2023-05-01T21:41:28.975Z,11.00
2023-05-01T21:43:56.539Z,10.95
2023-05-01T21:46:26.935Z,10.90
2023-05-01T21:48:54.606Z,10.82
2023-05-01T21:51:26.849Z,10.90
2023-05-01T21:53:54.358Z,10.83
2023-05-01T21:56:22.331Z,10.80
2023-05-01T21:58:49.865Z,10.75
2023-05-01T22:01:17.534Z,10.79
2023-05-01T22:03:47.849Z,10.77
2023-05-01T22:06:15.474Z,10.73
2023-05-01T22:08:42.981Z,10.71
2023-05-01T22:11:10.688Z,10.71
2023-05-01T22:13:38.185Z,10.65
2023-05-01T22:16:06.261Z,10.84
2023-05-01T22:18:33.841Z,10.79
2023-05-01T22:21:04.568Z,10.69
2023-05-01T22:23:32.077Z,10.72
2023-05-01T22:26:00.667Z,10.74
2023-05-01T22:28:28.395Z,10.66
2023-05-01T22:30:56.056Z,10.50
2023-05-01T22:33:23.563Z,10.50
2023-05-01T22:35:51.058Z,10.48
2023-05-01T22:38:19.892Z,10.57
2023-05-01T22:40:47.392Z,10.52
2023-05-01T22:43:15.403Z,10.48
2023-05-01T22:45:43.071Z,10.47
2023-05-01T22:48:10.684Z,10.50
2023-05-01T22:50:38.249Z,10.50
2023-05-01T22:53:05.756Z,10.59
2023-05-01T22:55:34.583Z,10.53
2023-05-01T22:58:02.055Z,10.50
2023-05-01T23:00:29.853Z,10.45
2023-05-01T23:02:57.472Z,10.43
2023-05-01T23:05:25.087Z,10.44
2023-05-01T23:07:52.568Z,10.41
2023-05-01T23:10:20.326Z,10.46
2023-05-01T23:12:49.177Z,10.48
2023-05-01T23:15:19.238Z,10.44
2023-05-01T23:17:46.944Z,10.52
2023-05-01T23:20:20.909Z,10.39
2023-05-01T23:22:48.688Z,10.41
2023-05-01T23:25:18.615Z,10.43
2023-05-01T23:27:51.587Z,10.54
2023-05-01T23:30:21.195Z,10.45
2023-05-01T23:32:48.954Z,10.38
2023-05-01T23:35:18.936Z,10.31
2023-05-01T23:37:46.447Z,10.32
2023-05-01T23:40:13.919Z,10.26
2023-05-01T23:42:41.435Z,10.22
2023-05-01T23:45:10.646Z,10.16
2023-05-01T23:47:38.751Z,10.22
2023-05-01T23:50:07.228Z,10.28
2023-05-01T23:52:34.728Z,10.18
2023-05-01T23:55:02.230Z,10.20
2023-05-01T23:57:29.720Z,10.13
2023-05-01T23:59:57.279Z,10.10
